sensor_id;sensor_type;location;lat;lon;timestamp;P1;durP1;ratioP1;P2;durP2;ratioP2
24897;SDS011;12957;49.434;8.684;2023-11-21T00:01:15;15.15;;;2.90;;
24897;SDS011;12957;49.434;8.684;2023-11-21T00:03:42;13.15;;;3.65;;
24897;SDS011;12957;49.434;8.684;2023-11-21T00:06:07;7.90;;;3.30;;
24897;SDS011;12957;49.434;8.684;2023-11-21T00:08:36;7.35;;;3.22;;
24897;SDS011;12957;49.434;8.684;2023-11-21T00:11:01;13.35;;;3.80;;
24897;SDS011;12957;49.434;8.684;2023-11-21T00:13:30;11.75;;;3.60;;
24897;SDS011;12957;49.434;8.684;2023-11-21T00:15:56;8.43;;;3.72;;
24897;SDS011;12957;49.434;8.684;2023-11-21T00:18:22;14.02;;;3.60;;
24897;SDS011;12957;49.434;8.684;2023-11-21T00:20:47;7.75;;;3.40;;
24897;SDS011;12957;49.434;8.684;2023-11-21T00:23:13;10.75;;;3.70;;
24897;SDS011;12957;49.434;8.684;2023-11-21T00:25:38;15.02;;;3.70;;
24897;SDS011;12957;49.434;8.684;2023-11-21T00:28:04;19.02;;;4.30;;
24897;SDS011;12957;49.434;8.684;2023-11-21T00:30:30;15.20;;;3.85;;
24897;SDS011;12957;49.434;8.684;2023-11-21T00:32:56;15.07;;;3.47;;
24897;SDS011;12957;49.434;8.684;2023-11-21T00:35:22;11.43;;;3.95;;
24897;SDS011;12957;49.434;8.684;2023-11-21T00:37:47;18.13;;;3.90;;
24897;SDS011;12957;49.434;8.684;2023-11-21T00:40:14;21.75;;;4.82;;
24897;SDS011;12957;49.434;8.684;2023-11-21T00:42:40;17.23;;;3.72;;
24897;SDS011;12957;49.434;8.684;2023-11-21T00:45:06;14.07;;;3.80;;
24897;SDS011;12957;49.434;8.684;2023-11-21T00:47:32;16.40;;;3.78;;
24897;SDS011;12957;49.434;8.684;2023-11-21T00:49:58;13.55;;;3.80;;
24897;SDS011;12957;49.434;8.684;2023-11-21T00:52:23;16.50;;;3.58;;
24897;SDS011;12957;49.434;8.684;2023-11-21T00:54:49;14.88;;;3.72;;
24897;SDS011;12957;49.434;8.684;2023-11-21T00:57:14;15.40;;;4.05;;
24897;SDS011;12957;49.434;8.684;2023-11-21T00:59:40;23.00;;;4.22;;
24897;SDS011;12957;49.434;8.684;2023-11-21T01:02:05;11.77;;;3.28;;
24897;SDS011;12957;49.434;8.684;2023-11-21T01:04:35;7.18;;;2.95;;
24897;SDS011;12957;49.434;8.684;2023-11-21T01:07:00;12.48;;;3.30;;
24897;SDS011;12957;49.434;8.684;2023-11-21T01:09:26;11.25;;;2.85;;
24897;SDS011;12957;49.434;8.684;2023-11-21T01:11:51;12.98;;;3.40;;
24897;SDS011;12957;49.434;8.684;2023-11-21T01:14:17;15.10;;;2.80;;
24897;SDS011;12957;49.434;8.684;2023-11-21T01:16:42;13.57;;;3.25;;
24897;SDS011;12957;49.434;8.684;2023-11-21T01:19:08;12.25;;;3.15;;
24897;SDS011;12957;49.434;8.684;2023-11-21T01:21:34;10.27;;;3.35;;
24897;SDS011;12957;49.434;8.684;2023-11-21T01:23:59;12.05;;;3.40;;
24897;SDS011;12957;49.434;8.684;2023-11-21T01:26:25;16.13;;;3.85;;
24897;SDS011;12957;49.434;8.684;2023-11-21T01:28:50;11.93;;;3.30;;
24897;SDS011;12957;49.434;8.684;2023-11-21T01:31:16;12.63;;;3.40;;
24897;SDS011;12957;49.434;8.684;2023-11-21T01:33:41;12.52;;;3.40;;
24897;SDS011;12957;49.434;8.684;2023-11-21T01:36:07;8.50;;;3.17;;
24897;SDS011;12957;49.434;8.684;2023-11-21T01:38:33;12.20;;;3.58;;
24897;SDS011;12957;49.434;8.684;2023-11-21T01:40:59;16.50;;;3.95;;
24897;SDS011;12957;49.434;8.684;2023-11-21T01:43:28;10.57;;;3.05;;
24897;SDS011;12957;49.434;8.684;2023-11-21T01:45:55;13.70;;;3.40;;
24897;SDS011;12957;49.434;8.684;2023-11-21T01:48:24;18.88;;;3.63;;
24897;SDS011;12957;49.434;8.684;2023-11-21T01:50:50;13.95;;;3.33;;
24897;SDS011;12957;49.434;8.684;2023-11-21T01:53:16;11.02;;;3.53;;
24897;SDS011;12957;49.434;8.684;2023-11-21T01:55:41;4.45;;;2.60;;
24897;SDS011;12957;49.434;8.684;2023-11-21T01:58:07;5.97;;;2.95;;
24897;SDS011;12957;49.434;8.684;2023-11-21T02:00:34;12.75;;;3.38;;
24897;SDS011;12957;49.434;8.684;2023-11-21T02:02:59;14.18;;;3.00;;
24897;SDS011;12957;49.434;8.684;2023-11-21T02:05:25;11.43;;;3.17;;
24897;SDS011;12957;49.434;8.684;2023-11-21T02:07:51;14.77;;;3.13;;
24897;SDS011;12957;49.434;8.684;2023-11-21T02:10:17;11.95;;;3.13;;
24897;SDS011;12957;49.434;8.684;2023-11-21T02:12:47;13.15;;;3.33;;
24897;SDS011;12957;49.434;8.684;2023-11-21T02:15:15;13.45;;;3.03;;
24897;SDS011;12957;49.434;8.684;2023-11-21T02:17:45;6.50;;;3.20;;
24897;SDS011;12957;49.434;8.684;2023-11-21T02:20:17;10.68;;;3.42;;
24897;SDS011;12957;49.434;8.684;2023-11-21T02:22:43;10.68;;;2.60;;
24897;SDS011;12957;49.434;8.684;2023-11-21T02:25:09;13.98;;;3.30;;
24897;SDS011;12957;49.434;8.684;2023-11-21T02:27:34;12.32;;;2.90;;
24897;SDS011;12957;49.434;8.684;2023-11-21T02:30:00;5.60;;;2.58;;
24897;SDS011;12957;49.434;8.684;2023-11-21T02:32:26;7.57;;;3.10;;
24897;SDS011;12957;49.434;8.684;2023-11-21T02:34:52;15.25;;;3.15;;
24897;SDS011;12957;49.434;8.684;2023-11-21T02:37:18;8.73;;;2.67;;
24897;SDS011;12957;49.434;8.684;2023-11-21T02:39:44;10.85;;;3.00;;
24897;SDS011;12957;49.434;8.684;2023-11-21T02:42:09;11.57;;;3.03;;
24897;SDS011;12957;49.434;8.684;2023-11-21T02:44:35;14.32;;;2.95;;
24897;SDS011;12957;49.434;8.684;2023-11-21T02:47:00;15.20;;;3.50;;
24897;SDS011;12957;49.434;8.684;2023-11-21T02:49:26;5.50;;;2.45;;
24897;SDS011;12957;49.434;8.684;2023-11-21T02:51:53;5.43;;;2.53;;
24897;SDS011;12957;49.434;8.684;2023-11-21T02:54:20;8.32;;;2.55;;
24897;SDS011;12957;49.434;8.684;2023-11-21T02:56:47;5.78;;;2.60;;
24897;SDS011;12957;49.434;8.684;2023-11-21T02:59:12;11.13;;;2.60;;
24897;SDS011;12957;49.434;8.684;2023-11-21T03:01:38;13.40;;;2.78;;
24897;SDS011;12957;49.434;8.684;2023-11-21T03:04:04;8.85;;;3.10;;
24897;SDS011;12957;49.434;8.684;2023-11-21T03:06:29;14.48;;;2.70;;
24897;SDS011;12957;49.434;8.684;2023-11-21T03:08:55;11.38;;;2.90;;
24897;SDS011;12957;49.434;8.684;2023-11-21T03:11:20;8.13;;;2.78;;
24897;SDS011;12957;49.434;8.684;2023-11-21T03:13:46;8.73;;;2.92;;
24897;SDS011;12957;49.434;8.684;2023-11-21T03:16:13;14.27;;;3.00;;
24897;SDS011;12957;49.434;8.684;2023-11-21T03:18:39;13.10;;;3.55;;
24897;SDS011;12957;49.434;8.684;2023-11-21T03:21:05;8.27;;;2.78;;
24897;SDS011;12957;49.434;8.684;2023-11-21T03:23:31;7.85;;;2.47;;
24897;SDS011;12957;49.434;8.684;2023-11-21T03:25:57;8.55;;;2.80;;
24897;SDS011;12957;49.434;8.684;2023-11-21T03:28:23;10.55;;;2.88;;
24897;SDS011;12957;49.434;8.684;2023-11-21T03:30:48;9.77;;;2.70;;
24897;SDS011;12957;49.434;8.684;2023-11-21T03:33:14;5.75;;;2.83;;
24897;SDS011;12957;49.434;8.684;2023-11-21T03:35:39;7.43;;;2.88;;
24897;SDS011;12957;49.434;8.684;2023-11-21T03:38:07;11.45;;;3.50;;
24897;SDS011;12957;49.434;8.684;2023-11-21T03:40:32;5.75;;;2.83;;
24897;SDS011;12957;49.434;8.684;2023-11-21T03:42:58;6.53;;;2.60;;
24897;SDS011;12957;49.434;8.684;2023-11-21T03:45:23;13.18;;;2.63;;
24897;SDS011;12957;49.434;8.684;2023-11-21T03:47:49;9.85;;;2.67;;
24897;SDS011;12957;49.434;8.684;2023-11-21T03:50:15;13.45;;;3.08;;
24897;SDS011;12957;49.434;8.684;2023-11-21T03:52:40;8.15;;;2.75;;
24897;SDS011;12957;49.434;8.684;2023-11-21T03:55:06;4.25;;;2.53;;
24897;SDS011;12957;49.434;8.684;2023-11-21T03:57:32;7.32;;;2.88;;
24897;SDS011;12957;49.434;8.684;2023-11-21T03:59:57;8.32;;;2.83;;
24897;SDS011;12957;49.434;8.684;2023-11-21T04:02:23;7.93;;;3.03;;
24897;SDS011;12957;49.434;8.684;2023-11-21T04:04:50;7.90;;;2.80;;
24897;SDS011;12957;49.434;8.684;2023-11-21T04:07:16;4.35;;;2.67;;
24897;SDS011;12957;49.434;8.684;2023-11-21T04:09:42;10.98;;;3.10;;
24897;SDS011;12957;49.434;8.684;2023-11-21T04:12:08;14.00;;;3.13;;
24897;SDS011;12957;49.434;8.684;2023-11-21T04:14:36;6.95;;;3.00;;
24897;SDS011;12957;49.434;8.684;2023-11-21T04:17:02;10.60;;;3.40;;
24897;SDS011;12957;49.434;8.684;2023-11-21T04:19:29;10.75;;;2.83;;
24897;SDS011;12957;49.434;8.684;2023-11-21T04:21:54;6.20;;;2.60;;
24897;SDS011;12957;49.434;8.684;2023-11-21T04:24:20;9.55;;;3.67;;
24897;SDS011;12957;49.434;8.684;2023-11-21T04:26:45;5.90;;;2.75;;
24897;SDS011;12957;49.434;8.684;2023-11-21T04:29:11;6.47;;;2.80;;
24897;SDS011;12957;49.434;8.684;2023-11-21T04:31:37;7.18;;;3.03;;
24897;SDS011;12957;49.434;8.684;2023-11-21T04:34:02;5.75;;;3.22;;
24897;SDS011;12957;49.434;8.684;2023-11-21T04:36:29;9.82;;;3.40;;
24897;SDS011;12957;49.434;8.684;2023-11-21T04:38:55;10.02;;;3.22;;
24897;SDS011;12957;49.434;8.684;2023-11-21T04:41:21;5.55;;;3.15;;
24897;SDS011;12957;49.434;8.684;2023-11-21T04:43:47;3.42;;;2.70;;
24897;SDS011;12957;49.434;8.684;2023-11-21T04:46:12;12.32;;;3.40;;
24897;SDS011;12957;49.434;8.684;2023-11-21T04:48:38;8.55;;;3.33;;
24897;SDS011;12957;49.434;8.684;2023-11-21T04:51:03;9.88;;;3.70;;
24897;SDS011;12957;49.434;8.684;2023-11-21T04:53:29;6.90;;;3.35;;
24897;SDS011;12957;49.434;8.684;2023-11-21T04:55:55;6.28;;;3.45;;
24897;SDS011;12957;49.434;8.684;2023-11-21T04:58:20;4.93;;;3.70;;
24897;SDS011;12957;49.434;8.684;2023-11-21T05:00:46;5.20;;;3.33;;
24897;SDS011;12957;49.434;8.684;2023-11-21T05:03:12;7.43;;;3.70;;
24897;SDS011;12957;49.434;8.684;2023-11-21T05:05:37;10.38;;;4.50;;
24897;SDS011;12957;49.434;8.684;2023-11-21T05:08:03;7.53;;;3.28;;
24897;SDS011;12957;49.434;8.684;2023-11-21T05:10:29;6.22;;;3.38;;
24897;SDS011;12957;49.434;8.684;2023-11-21T05:12:55;4.05;;;3.67;;
24897;SDS011;12957;49.434;8.684;2023-11-21T05:15:21;11.75;;;3.70;;
24897;SDS011;12957;49.434;8.684;2023-11-21T05:17:46;11.85;;;4.53;;
24897;SDS011;12957;49.434;8.684;2023-11-21T05:20:15;16.48;;;4.72;;
24897;SDS011;12957;49.434;8.684;2023-11-21T05:22:45;9.43;;;5.03;;
24897;SDS011;12957;49.434;8.684;2023-11-21T05:25:11;8.88;;;3.90;;
24897;SDS011;12957;49.434;8.684;2023-11-21T05:27:36;8.07;;;4.20;;
24897;SDS011;12957;49.434;8.684;2023-11-21T05:30:03;7.78;;;4.40;;
24897;SDS011;12957;49.434;8.684;2023-11-21T05:32:34;6.18;;;3.90;;
24897;SDS011;12957;49.434;8.684;2023-11-21T05:34:59;7.50;;;4.50;;
24897;SDS011;12957;49.434;8.684;2023-11-21T05:37:25;13.05;;;4.72;;
24897;SDS011;12957;49.434;8.684;2023-11-21T05:39:52;13.10;;;4.60;;
24897;SDS011;12957;49.434;8.684;2023-11-21T05:42:18;10.93;;;4.57;;
24897;SDS011;12957;49.434;8.684;2023-11-21T05:44:43;11.07;;;4.85;;
24897;SDS011;12957;49.434;8.684;2023-11-21T05:47:09;19.90;;;4.90;;
24897;SDS011;12957;49.434;8.684;2023-11-21T05:49:35;11.35;;;5.35;;
24897;SDS011;12957;49.434;8.684;2023-11-21T05:52:01;14.07;;;5.40;;
24897;SDS011;12957;49.434;8.684;2023-11-21T05:54:26;11.00;;;5.38;;
24897;SDS011;12957;49.434;8.684;2023-11-21T05:56:52;16.90;;;5.78;;
24897;SDS011;12957;49.434;8.684;2023-11-21T05:59:17;12.95;;;5.47;;
24897;SDS011;12957;49.434;8.684;2023-11-21T06:01:43;15.95;;;6.82;;
24897;SDS011;12957;49.434;8.684;2023-11-21T06:04:11;14.82;;;7.22;;
24897;SDS011;12957;49.434;8.684;2023-11-21T06:06:36;15.60;;;8.73;;
24897;SDS011;12957;49.434;8.684;2023-11-21T06:09:02;15.18;;;7.78;;
24897;SDS011;12957;49.434;8.684;2023-11-21T06:11:27;13.57;;;9.18;;
24897;SDS011;12957;49.434;8.684;2023-11-21T06:13:53;13.82;;;8.07;;
24897;SDS011;12957;49.434;8.684;2023-11-21T06:16:18;19.70;;;8.57;;
24897;SDS011;12957;49.434;8.684;2023-11-21T06:18:47;13.20;;;8.52;;
24897;SDS011;12957;49.434;8.684;2023-11-21T06:21:13;13.85;;;8.35;;
24897;SDS011;12957;49.434;8.684;2023-11-21T06:23:38;13.57;;;8.07;;
24897;SDS011;12957;49.434;8.684;2023-11-21T06:26:04;10.35;;;8.00;;
24897;SDS011;12957;49.434;8.684;2023-11-21T06:28:31;14.07;;;8.43;;
24897;SDS011;12957;49.434;8.684;2023-11-21T06:30:56;12.00;;;8.80;;
24897;SDS011;12957;49.434;8.684;2023-11-21T06:33:23;12.07;;;8.35;;
24897;SDS011;12957;49.434;8.684;2023-11-21T06:35:48;18.10;;;8.65;;
24897;SDS011;12957;49.434;8.684;2023-11-21T06:38:14;23.60;;;9.40;;
24897;SDS011;12957;49.434;8.684;2023-11-21T06:40:40;13.38;;;9.10;;
24897;SDS011;12957;49.434;8.684;2023-11-21T06:43:06;14.88;;;9.55;;
24897;SDS011;12957;49.434;8.684;2023-11-21T06:45:32;20.27;;;9.90;;
24897;SDS011;12957;49.434;8.684;2023-11-21T06:47:59;15.63;;;9.18;;
24897;SDS011;12957;49.434;8.684;2023-11-21T06:50:25;18.23;;;9.27;;
24897;SDS011;12957;49.434;8.684;2023-11-21T06:52:50;17.15;;;9.20;;
24897;SDS011;12957;49.434;8.684;2023-11-21T06:55:16;15.35;;;9.05;;
24897;SDS011;12957;49.434;8.684;2023-11-21T06:57:41;16.02;;;8.27;;
24897;SDS011;12957;49.434;8.684;2023-11-21T07:00:08;14.57;;;8.05;;
24897;SDS011;12957;49.434;8.684;2023-11-21T07:02:34;15.20;;;8.85;;
24897;SDS011;12957;49.434;8.684;2023-11-21T07:04:59;16.65;;;9.13;;
24897;SDS011;12957;49.434;8.684;2023-11-21T07:07:25;14.02;;;8.00;;
24897;SDS011;12957;49.434;8.684;2023-11-21T07:09:52;12.13;;;8.63;;
24897;SDS011;12957;49.434;8.684;2023-11-21T07:12:18;11.90;;;8.57;;
24897;SDS011;12957;49.434;8.684;2023-11-21T07:14:43;19.08;;;9.45;;
24897;SDS011;12957;49.434;8.684;2023-11-21T07:17:10;18.38;;;8.75;;
24897;SDS011;12957;49.434;8.684;2023-11-21T07:19:37;21.10;;;10.68;;
24897;SDS011;12957;49.434;8.684;2023-11-21T07:22:03;16.90;;;9.65;;
24897;SDS011;12957;49.434;8.684;2023-11-21T07:24:30;14.90;;;9.38;;
24897;SDS011;12957;49.434;8.684;2023-11-21T07:26:57;17.88;;;9.05;;
24897;SDS011;12957;49.434;8.684;2023-11-21T07:29:25;13.43;;;8.40;;
24897;SDS011;12957;49.434;8.684;2023-11-21T07:31:52;17.60;;;9.77;;
24897;SDS011;12957;49.434;8.684;2023-11-21T07:34:17;17.58;;;9.43;;
24897;SDS011;12957;49.434;8.684;2023-11-21T07:36:44;12.25;;;9.02;;
24897;SDS011;12957;49.434;8.684;2023-11-21T07:39:09;12.48;;;9.25;;
24897;SDS011;12957;49.434;8.684;2023-11-21T07:41:35;16.83;;;9.35;;
24897;SDS011;12957;49.434;8.684;2023-11-21T07:44:00;22.83;;;11.98;;
24897;SDS011;12957;49.434;8.684;2023-11-21T07:46:26;21.85;;;11.10;;
24897;SDS011;12957;49.434;8.684;2023-11-21T07:48:52;20.15;;;10.32;;
24897;SDS011;12957;49.434;8.684;2023-11-21T07:51:18;21.48;;;10.73;;
24897;SDS011;12957;49.434;8.684;2023-11-21T07:53:44;22.85;;;12.73;;
24897;SDS011;12957;49.434;8.684;2023-11-21T07:56:09;28.35;;;12.32;;
24897;SDS011;12957;49.434;8.684;2023-11-21T07:58:35;20.48;;;11.93;;
24897;SDS011;12957;49.434;8.684;2023-11-21T08:01:02;22.30;;;11.15;;
24897;SDS011;12957;49.434;8.684;2023-11-21T08:03:28;21.08;;;12.10;;
24897;SDS011;12957;49.434;8.684;2023-11-21T08:05:56;25.63;;;12.05;;
24897;SDS011;12957;49.434;8.684;2023-11-21T08:08:22;25.55;;;12.70;;
24897;SDS011;12957;49.434;8.684;2023-11-21T08:10:48;19.15;;;12.25;;
24897;SDS011;12957;49.434;8.684;2023-11-21T08:13:21;22.67;;;12.75;;
24897;SDS011;12957;49.434;8.684;2023-11-21T08:15:47;21.25;;;12.88;;
24897;SDS011;12957;49.434;8.684;2023-11-21T08:18:13;24.88;;;13.52;;
24897;SDS011;12957;49.434;8.684;2023-11-21T08:20:40;20.30;;;12.60;;
24897;SDS011;12957;49.434;8.684;2023-11-21T08:23:05;24.55;;;14.05;;
24897;SDS011;12957;49.434;8.684;2023-11-21T08:25:31;21.50;;;13.68;;
24897;SDS011;12957;49.434;8.684;2023-11-21T08:27:58;21.75;;;12.30;;
24897;SDS011;12957;49.434;8.684;2023-11-21T08:30:24;23.05;;;12.80;;
24897;SDS011;12957;49.434;8.684;2023-11-21T08:32:50;20.63;;;11.65;;
24897;SDS011;12957;49.434;8.684;2023-11-21T08:35:17;17.80;;;11.13;;
24897;SDS011;12957;49.434;8.684;2023-11-21T08:37:42;15.38;;;11.32;;
24897;SDS011;12957;49.434;8.684;2023-11-21T08:40:08;17.23;;;10.88;;
24897;SDS011;12957;49.434;8.684;2023-11-21T08:42:34;14.18;;;10.43;;
24897;SDS011;12957;49.434;8.684;2023-11-21T08:45:00;19.02;;;10.93;;
24897;SDS011;12957;49.434;8.684;2023-11-21T08:47:26;13.40;;;9.27;;
24897;SDS011;12957;49.434;8.684;2023-11-21T08:49:52;13.88;;;8.80;;
24897;SDS011;12957;49.434;8.684;2023-11-21T08:52:18;9.60;;;8.10;;
24897;SDS011;12957;49.434;8.684;2023-11-21T08:54:47;11.55;;;7.75;;
24897;SDS011;12957;49.434;8.684;2023-11-21T08:57:13;9.63;;;7.10;;
24897;SDS011;12957;49.434;8.684;2023-11-21T08:59:39;7.85;;;6.85;;
24897;SDS011;12957;49.434;8.684;2023-11-21T09:02:04;10.13;;;7.35;;
24897;SDS011;12957;49.434;8.684;2023-11-21T09:04:31;8.77;;;7.07;;
24897;SDS011;12957;49.434;8.684;2023-11-21T09:06:56;9.65;;;7.05;;
24897;SDS011;12957;49.434;8.684;2023-11-21T09:09:25;7.93;;;6.65;;
24897;SDS011;12957;49.434;8.684;2023-11-21T09:11:50;9.50;;;6.88;;
24897;SDS011;12957;49.434;8.684;2023-11-21T09:14:16;8.50;;;6.75;;
24897;SDS011;12957;49.434;8.684;2023-11-21T09:16:43;7.93;;;6.60;;
24897;SDS011;12957;49.434;8.684;2023-11-21T09:19:08;11.35;;;6.80;;
24897;SDS011;12957;49.434;8.684;2023-11-21T09:21:34;8.52;;;6.63;;
24897;SDS011;12957;49.434;8.684;2023-11-21T09:23:59;6.90;;;6.13;;
24897;SDS011;12957;49.434;8.684;2023-11-21T09:26:25;8.98;;;6.10;;
24897;SDS011;12957;49.434;8.684;2023-11-21T09:28:51;9.35;;;7.20;;
24897;SDS011;12957;49.434;8.684;2023-11-21T09:31:17;10.98;;;6.88;;
24897;SDS011;12957;49.434;8.684;2023-11-21T09:33:42;8.00;;;6.40;;
24897;SDS011;12957;49.434;8.684;2023-11-21T09:36:12;7.05;;;5.55;;
24897;SDS011;12957;49.434;8.684;2023-11-21T09:38:40;7.10;;;5.90;;
24897;SDS011;12957;49.434;8.684;2023-11-21T09:41:11;5.63;;;4.68;;
24897;SDS011;12957;49.434;8.684;2023-11-21T09:44:00;4.53;;;3.85;;
24897;SDS011;12957;49.434;8.684;2023-11-21T09:46:28;4.32;;;3.53;;
24897;SDS011;12957;49.434;8.684;2023-11-21T09:48:55;5.80;;;3.90;;
24897;SDS011;12957;49.434;8.684;2023-11-21T09:51:22;7.00;;;4.18;;
24897;SDS011;12957;49.434;8.684;2023-11-21T09:53:50;5.95;;;4.50;;
24897;SDS011;12957;49.434;8.684;2023-11-21T09:56:17;4.65;;;3.58;;
24897;SDS011;12957;49.434;8.684;2023-11-21T09:58:50;4.13;;;3.72;;
24897;SDS011;12957;49.434;8.684;2023-11-21T10:01:16;4.85;;;4.00;;
24897;SDS011;12957;49.434;8.684;2023-11-21T10:03:43;4.90;;;4.10;;
24897;SDS011;12957;49.434;8.684;2023-11-21T10:06:08;4.03;;;3.38;;
24897;SDS011;12957;49.434;8.684;2023-11-21T10:08:34;2.80;;;2.60;;
24897;SDS011;12957;49.434;8.684;2023-11-21T10:11:01;3.50;;;2.78;;
24897;SDS011;12957;49.434;8.684;2023-11-21T10:13:28;5.30;;;3.00;;
24897;SDS011;12957;49.434;8.684;2023-11-21T10:15:55;4.03;;;2.85;;
24897;SDS011;12957;49.434;8.684;2023-11-21T10:18:21;2.90;;;2.63;;
24897;SDS011;12957;49.434;8.684;2023-11-21T10:20:50;3.47;;;2.90;;
24897;SDS011;12957;49.434;8.684;2023-11-21T10:23:18;4.68;;;4.22;;
24897;SDS011;12957;49.434;8.684;2023-11-21T10:25:44;4.00;;;2.92;;
24897;SDS011;12957;49.434;8.684;2023-11-21T10:28:10;3.72;;;3.33;;
24897;SDS011;12957;49.434;8.684;2023-11-21T10:30:36;5.07;;;3.47;;
24897;SDS011;12957;49.434;8.684;2023-11-21T10:33:05;5.50;;;4.03;;
24897;SDS011;12957;49.434;8.684;2023-11-21T10:35:40;5.88;;;4.22;;
24897;SDS011;12957;49.434;8.684;2023-11-21T10:38:17;7.05;;;4.68;;
24897;SDS011;12957;49.434;8.684;2023-11-21T10:40:43;6.05;;;4.20;;
24897;SDS011;12957;49.434;8.684;2023-11-21T10:43:11;7.13;;;3.88;;
24897;SDS011;12957;49.434;8.684;2023-11-21T10:45:38;4.88;;;4.35;;
24897;SDS011;12957;49.434;8.684;2023-11-21T10:48:11;7.60;;;4.70;;
24897;SDS011;12957;49.434;8.684;2023-11-21T10:50:40;7.75;;;5.43;;
24897;SDS011;12957;49.434;8.684;2023-11-21T10:53:06;11.30;;;5.75;;
24897;SDS011;12957;49.434;8.684;2023-11-21T10:55:32;8.07;;;5.78;;
24897;SDS011;12957;49.434;8.684;2023-11-21T10:57:58;8.90;;;6.30;;
24897;SDS011;12957;49.434;8.684;2023-11-21T11:00:27;8.23;;;5.45;;
24897;SDS011;12957;49.434;8.684;2023-11-21T11:02:53;7.53;;;5.93;;
24897;SDS011;12957;49.434;8.684;2023-11-21T11:05:25;8.75;;;6.00;;
24897;SDS011;12957;49.434;8.684;2023-11-21T11:07:58;7.18;;;5.53;;
24897;SDS011;12957;49.434;8.684;2023-11-21T11:10:26;9.57;;;6.43;;
24897;SDS011;12957;49.434;8.684;2023-11-21T11:12:54;11.30;;;6.65;;
24897;SDS011;12957;49.434;8.684;2023-11-21T11:15:20;7.28;;;6.30;;
24897;SDS011;12957;49.434;8.684;2023-11-21T11:17:46;9.23;;;6.70;;
24897;SDS011;12957;49.434;8.684;2023-11-21T11:20:16;11.00;;;7.15;;
24897;SDS011;12957;49.434;8.684;2023-11-21T11:25:46;10.45;;;6.97;;
24897;SDS011;12957;49.434;8.684;2023-11-21T11:34:10;8.15;;;5.80;;
24897;SDS011;12957;49.434;8.684;2023-11-21T11:36:48;10.05;;;6.93;;
24897;SDS011;12957;49.434;8.684;2023-11-21T11:39:30;9.35;;;6.47;;
24897;SDS011;12957;49.434;8.684;2023-11-21T11:42:13;11.07;;;6.57;;
24897;SDS011;12957;49.434;8.684;2023-11-21T11:52:43;5.82;;;5.10;;
24897;SDS011;12957;49.434;8.684;2023-11-21T11:55:13;8.57;;;5.47;;
24897;SDS011;12957;49.434;8.684;2023-11-21T11:57:43;7.07;;;4.90;;
24897;SDS011;12957;49.434;8.684;2023-11-21T12:02:45;10.75;;;4.88;;
24897;SDS011;12957;49.434;8.684;2023-11-21T12:05:13;4.75;;;3.97;;
24897;SDS011;12957;49.434;8.684;2023-11-21T12:07:52;7.22;;;5.07;;
24897;SDS011;12957;49.434;8.684;2023-11-21T12:10:23;5.07;;;3.60;;
24897;SDS011;12957;49.434;8.684;2023-11-21T12:12:54;4.43;;;3.30;;
24897;SDS011;12957;49.434;8.684;2023-11-21T12:15:21;4.07;;;3.15;;
24897;SDS011;12957;49.434;8.684;2023-11-21T12:17:47;4.22;;;3.83;;
24897;SDS011;12957;49.434;8.684;2023-11-21T12:20:14;6.03;;;4.65;;
24897;SDS011;12957;49.434;8.684;2023-11-21T12:22:48;7.95;;;4.40;;
24897;SDS011;12957;49.434;8.684;2023-11-21T12:25:19;4.03;;;3.65;;
24897;SDS011;12957;49.434;8.684;2023-11-21T12:27:46;4.32;;;3.30;;
24897;SDS011;12957;49.434;8.684;2023-11-21T12:30:16;3.88;;;3.42;;
24897;SDS011;12957;49.434;8.684;2023-11-21T12:32:44;5.95;;;3.92;;
24897;SDS011;12957;49.434;8.684;2023-11-21T12:35:11;7.20;;;3.83;;
24897;SDS011;12957;49.434;8.684;2023-11-21T12:37:40;7.10;;;3.40;;
24897;SDS011;12957;49.434;8.684;2023-11-21T12:40:08;6.30;;;3.47;;
24897;SDS011;12957;49.434;8.684;2023-11-21T12:42:36;4.28;;;3.38;;
24897;SDS011;12957;49.434;8.684;2023-11-21T12:47:43;7.68;;;3.00;;
24897;SDS011;12957;49.434;8.684;2023-11-21T12:50:09;5.07;;;3.33;;
24897;SDS011;12957;49.434;8.684;2023-11-21T12:52:42;3.65;;;2.80;;
24897;SDS011;12957;49.434;8.684;2023-11-21T12:55:18;3.50;;;2.90;;
24897;SDS011;12957;49.434;8.684;2023-11-21T12:57:48;4.53;;;3.10;;
24897;SDS011;12957;49.434;8.684;2023-11-21T13:00:16;5.03;;;2.20;;
24897;SDS011;12957;49.434;8.684;2023-11-21T13:02:55;3.28;;;1.90;;
24897;SDS011;12957;49.434;8.684;2023-11-21T13:05:25;8.30;;;2.60;;
24897;SDS011;12957;49.434;8.684;2023-11-21T13:07:50;2.17;;;1.75;;
24897;SDS011;12957;49.434;8.684;2023-11-21T13:10:19;2.10;;;1.80;;
24897;SDS011;12957;49.434;8.684;2023-11-21T13:12:51;3.90;;;1.80;;
24897;SDS011;12957;49.434;8.684;2023-11-21T13:15:17;1.73;;;1.63;;
24897;SDS011;12957;49.434;8.684;2023-11-21T13:17:43;2.95;;;1.60;;
24897;SDS011;12957;49.434;8.684;2023-11-21T13:20:10;1.73;;;1.63;;
24897;SDS011;12957;49.434;8.684;2023-11-21T13:22:54;2.28;;;2.15;;
24897;SDS011;12957;49.434;8.684;2023-11-21T13:25:24;3.83;;;1.60;;
24897;SDS011;12957;49.434;8.684;2023-11-21T13:27:52;3.53;;;1.83;;
24897;SDS011;12957;49.434;8.684;2023-11-21T13:30:18;3.80;;;1.40;;
24897;SDS011;12957;49.434;8.684;2023-11-21T13:32:51;1.40;;;1.23;;
24897;SDS011;12957;49.434;8.684;2023-11-21T13:35:17;1.45;;;1.25;;
24897;SDS011;12957;49.434;8.684;2023-11-21T13:37:52;1.42;;;1.33;;
24897;SDS011;12957;49.434;8.684;2023-11-21T13:40:21;1.70;;;1.60;;
24897;SDS011;12957;49.434;8.684;2023-11-21T13:42:50;2.05;;;1.52;;
24897;SDS011;12957;49.434;8.684;2023-11-21T13:45:18;3.70;;;1.40;;
24897;SDS011;12957;49.434;8.684;2023-11-21T13:47:46;2.05;;;1.52;;
24897;SDS011;12957;49.434;8.684;2023-11-21T13:50:12;2.88;;;1.40;;
24897;SDS011;12957;49.434;8.684;2023-11-21T13:52:43;2.75;;;1.30;;
24897;SDS011;12957;49.434;8.684;2023-11-21T13:55:10;1.45;;;1.30;;
24897;SDS011;12957;49.434;8.684;2023-11-21T13:57:40;2.45;;;1.15;;
24897;SDS011;12957;49.434;8.684;2023-11-21T14:00:09;1.98;;;1.20;;
24897;SDS011;12957;49.434;8.684;2023-11-21T14:02:55;1.58;;;1.30;;
24897;SDS011;12957;49.434;8.684;2023-11-21T14:05:25;2.78;;;1.48;;
24897;SDS011;12957;49.434;8.684;2023-11-21T14:07:54;2.05;;;1.77;;
24897;SDS011;12957;49.434;8.684;2023-11-21T14:10:29;4.15;;;2.03;;
24897;SDS011;12957;49.434;8.684;2023-11-21T14:13:05;5.03;;;2.30;;
24897;SDS011;12957;49.434;8.684;2023-11-21T14:15:31;3.85;;;2.40;;
24897;SDS011;12957;49.434;8.684;2023-11-21T14:17:58;6.60;;;2.63;;
24897;SDS011;12957;49.434;8.684;2023-11-21T14:20:28;3.42;;;2.70;;
24897;SDS011;12957;49.434;8.684;2023-11-21T14:22:56;8.27;;;2.13;;
24897;SDS011;12957;49.434;8.684;2023-11-21T14:25:36;7.40;;;2.67;;
24897;SDS011;12957;49.434;8.684;2023-11-21T14:28:05;3.10;;;2.03;;
24897;SDS011;12957;49.434;8.684;2023-11-21T14:30:32;2.30;;;2.10;;
24897;SDS011;12957;49.434;8.684;2023-11-21T14:33:00;4.43;;;2.03;;
24897;SDS011;12957;49.434;8.684;2023-11-21T14:35:26;5.30;;;2.20;;
24897;SDS011;12957;49.434;8.684;2023-11-21T14:37:52;5.10;;;2.05;;
24897;SDS011;12957;49.434;8.684;2023-11-21T14:40:18;2.20;;;1.88;;
24897;SDS011;12957;49.434;8.684;2023-11-21T14:42:49;5.03;;;1.73;;
24897;SDS011;12957;49.434;8.684;2023-11-21T14:45:19;2.28;;;1.70;;
24897;SDS011;12957;49.434;8.684;2023-11-21T14:48:03;4.38;;;1.80;;
24897;SDS011;12957;49.434;8.684;2023-11-21T14:50:32;3.78;;;1.80;;
24897;SDS011;12957;49.434;8.684;2023-11-21T14:53:07;1.75;;;1.60;;
24897;SDS011;12957;49.434;8.684;2023-11-21T14:55:37;5.10;;;2.05;;
24897;SDS011;12957;49.434;8.684;2023-11-21T14:58:15;3.22;;;2.00;;
24897;SDS011;12957;49.434;8.684;2023-11-21T15:01:01;3.80;;;1.73;;
24897;SDS011;12957;49.434;8.684;2023-11-21T15:03:28;3.15;;;1.65;;